Latest Coastal Weather Observations for Cape Flattery

IDQ60701

Issued at 3:22 am EST Sunday 25 October 2020 (issued every 10 minutes, with the page automatically refreshed every 10 minutes)

About coastal observations | Map of coastal stations | Coastal observations for QLD | Marine services | Other Formats
Station Details ID: 031213 Name: CAPE FLATTERY Lat: -14.97 Lon: 145.31 Height: 18.5 m
Data from the previous 72 hours. | See also: Recent months at Cape Flattery
Date/Time
EST
Wind Sea
Height
m
Swell Vis
km
Cloud Weather Temp
°C
Press
MSL
hPa
Rain since
9am
mm
Dir  Spd
kts
Gust
kts
Height
m
Period
s
Dir
25/03:00am CALM 0 0 - - - - - - - 22.3 1010.2 0.0
25/02:30am SW 2 4 - - - - - - - 22.1 1010.7 0.0
25/02:00am SW 1 4 - - - - - - - 22.3 1011.2 0.0
25/01:30am W 3 4 - - - - - - - 22.5 1011.3 0.0
25/01:00am CALM 0 0 - - - - - - - 22.6 1011.5 0.0
25/12:30am CALM 0 0 - - - - - - - 22.8 1011.8 0.0
25/12:00am CALM 0 0 - - - - - - - 22.9 1012.1 0.0
 
Date/Time
EST
Wind Sea
Height
m
Swell Vis
km
Cloud Weather Temp
°C
Press
MSL
hPa
Rain since
9am
mm
Dir  Spd
kts
Gust
kts
Height
m
Period
s
Dir
24/11:30pm CALM 0 0 - - - - - - - 22.7 1012.4 0.0
24/11:00pm SSE 2 4 - - - - - - - 22.9 1012.6 0.0
24/10:30pm ENE 4 5 - - - - - - - 23.7 1012.5 0.0
24/10:00pm CALM 0 0 - - - - - - - 23.6 1012.6 0.0
24/09:30pm CALM 0 0 - - - - - - - 23.3 1012.4 0.0
24/09:00pm CALM 0 0 - - - - - - - 23.7 1012.3 0.0
24/08:30pm E 5 6 - - - - - - - 24.4 1011.6 0.0
24/08:00pm E 4 5 - - - - - - - 24.5 1011.7 0.0
24/07:30pm E 4 6 - - - - - - - 24.9 1011.3 0.0
24/07:00pm E 6 8 - - - - - - - 25.2 1011.1 0.0
24/06:30pm ESE 5 8 - - - - - - - 25.6 1011.1 0.0
24/06:00pm E 6 8 - - - - - - - 26.3 1010.8 0.0
24/05:30pm ENE 8 11 - - - - - - - 26.8 1010.6 0.0
24/05:00pm E 8 11 - - - - - - - 27.9 1010.4 0.0
24/04:30pm E 6 9 - - - - - - - 28.8 1010.3 0.0
24/04:00pm E 8 11 - - - - - - - 28.9 1010.4 0.0
24/03:30pm ESE 9 14 - - - - - - - 28.4 1010.4 0.0
24/03:00pm E 9 14 - - - - - - - 29.2 1010.4 0.0
24/02:30pm ESE 10 15 - - - - - - - 29.3 1010.7 0.0
24/02:00pm ESE 10 14 - - - - - - - 30.0 1011.0 0.0
24/01:30pm SE 11 16 - - - - - - - 30.0 1011.2 0.0
24/01:00pm SE 11 16 - - - - - - - 30.2 1011.9 0.0
24/12:30pm SE 11 17 - - - - - - - 29.9 1012.5 0.0
24/12:00pm SE 11 16 - - - - - - - 30.3 1013.1 0.0
24/11:30am SE 11 17 - - - - - - - 30.3 1013.2 0.0
24/11:00am SE 11 15 - - - - - - - 28.9 1013.7 0.0
24/10:30am SE 11 15 - - - - - - - 29.6 1014.0 0.0
24/10:00am SE 10 13 - - - - - - - 28.6 1013.9 0.0
24/09:30am SE 10 15 - - - - - - - 28.7 1013.9 0.0
24/09:00am SE 10 14 - - - - - - - 28.6 1014.2 0.0
24/08:30am SE 10 14 - - - - - - - 27.9 1014.1 0.0
24/08:00am SSE 10 13 - - - - - - - 27.8 1014.1 0.0
24/07:30am SE 9 12 - - - - - - - 26.9 1013.8 0.0
24/07:00am SE 9 11 - - - - - - - 26.3 1013.5 0.0
24/06:30am SSE 7 9 - - - - - - - 25.4 1013.1 0.0
24/06:00am SE 7 9 - - - - - - - 24.6 1013.1 0.0
24/05:30am SSE 8 10 - - - - - - - 24.6 1013.0 0.0
24/05:00am SSE 8 10 - - - - - - - 24.7 1012.6 0.0
24/04:30am SE 6 8 - - - - - - - 24.3 1012.1 0.0
24/04:00am SE 5 7 - - - - - - - 24.0 1011.8 0.0
24/03:30am SE 7 10 - - - - - - - 24.8 1011.3 0.0
24/03:00am ESE 7 10 - - - - - - - 24.6 1011.3 0.0
24/02:30am SE 7 11 - - - - - - - 24.6 1011.6 0.0
24/02:00am ESE 7 9 - - - - - - - 24.6 1012.3 0.0
24/01:30am ESE 7 11 - - - - - - - 24.9 1012.3 0.0
24/01:00am E 6 8 - - - - - - - 24.7 1012.3 0.0
24/12:30am ESE 7 11 - - - - - - - 25.1 1012.6 0.0
24/12:00am ESE 5 8 - - - - - - - 24.6 1012.6 0.0
 
Date/Time
EST
Wind Sea
Height
m
Swell Vis
km
Cloud Weather Temp
°C
Press
MSL
hPa
Rain since
9am
mm
Dir  Spd
kts
Gust
kts
Height
m
Period
s
Dir
23/11:30pm ESE 5 7 - - - - - - - 24.3 1013.0 0.0
23/11:00pm ESE 6 8 - - - - - - - 24.4 1013.3 0.0
23/10:30pm ESE 6 8 - - - - - - - 24.5 1013.2 0.0
23/10:00pm ESE 7 9 - - - - - - - 24.8 1012.9 0.0
23/09:30pm ESE 6 7 - - - - - - - 24.2 1012.6 0.0
23/09:00pm ESE 6 8 - - - - - - - 23.9 1012.2 0.0
23/08:30pm ESE 5 7 - - - - - - - 24.1 1012.1 0.0
23/08:00pm ESE 6 8 - - - - - - - 24.4 1011.8 0.0
23/07:30pm ESE 6 7 - - - - - - - 24.5 1011.4 0.0
23/07:00pm ESE 6 8 - - - - - - - 24.8 1011.0 0.0
23/06:30pm ESE 7 9 - - - - - - - 25.5 1010.7 0.0
23/06:00pm ESE 7 10 - - - - - - - 26.4 1010.3 0.0
23/05:30pm SE 8 11 - - - - - - - 27.2 1010.1 0.0
23/05:00pm SE 8 12 - - - - - - - 27.8 1009.9 0.0
23/04:30pm ESE 9 13 - - - - - - - 28.1 1009.7 0.0
23/04:00pm SE 10 16 - - - - - - - 28.6 1009.7 0.0
23/03:30pm SE 11 16 - - - - - - - 29.1 1009.9 0.0
23/03:00pm SE 10 14 - - - - - - - 29.5 1010.1 0.0
23/02:30pm SE 11 16 - - - - - - - 29.3 1010.4 0.0
23/02:00pm SE 11 16 - - - - - - - 29.0 1011.0 0.0
23/01:30pm SE 11 16 - - - - - - - 30.1 1011.2 0.0
23/01:00pm SSE 11 16 - - - - - - - 30.1 1011.8 0.0
23/12:30pm SSE 12 17 - - - - - - - 29.2 1012.2 0.0
23/12:00pm SE 11 16 - - - - - - - 29.8 1012.7 0.0
23/11:30am SE 11 16 - - - - - - - 29.7 1013.2 0.0
23/11:00am SSE 11 16 - - - - - - - 29.5 1013.3 0.0
23/10:30am SSE 10 14 - - - - - - - 29.7 1013.6 0.0
23/10:00am SE 10 13 - - - - - - - 29.3 1013.8 0.0
23/09:30am SE 10 13 - - - - - - - 28.8 1013.9 0.0
23/09:00am SE 9 14 - - - - - - - 28.2 1014.0 0.0
23/08:30am SE 9 12 - - - - - - - 27.9 1014.0 0.0
23/08:00am SE 7 10 - - - - - - - 27.5 1013.9 0.0
23/07:30am SE 8 10 - - - - - - - 27.1 1013.6 0.0
23/07:00am SE 7 10 - - - - - - - 26.0 1013.1 0.0
23/06:30am ESE 5 6 - - - - - - - 24.3 1012.9 0.0
23/06:00am ESE 5 6 - - - - - - - 22.5 1012.5 0.0
23/05:30am ESE 5 6 - - - - - - - 22.9 1012.4 0.0
23/05:00am E 5 7 - - - - - - - 23.5 1012.0 0.0
23/04:30am ESE 5 7 - - - - - - - 23.9 1011.7 0.0
23/04:00am ESE 7 11 - - - - - - - 24.3 1011.0 0.0
23/03:30am ESE 6 7 - - - - - - - 23.4 1011.0 0.0
23/03:00am ESE 5 7 - - - - - - - 23.2 1011.0 0.0
23/02:30am ESE 6 8 - - - - - - - 23.4 1011.0 0.0
23/02:00am ESE 6 8 - - - - - - - 23.6 1011.2 0.0
23/01:30am E 6 8 - - - - - - - 23.8 1011.4 0.0
23/01:00am ESE 7 9 - - - - - - - 24.1 1011.8 0.0
23/12:30am ESE 6 8 - - - - - - - 23.8 1012.0 0.0
23/12:00am ESE 6 9 - - - - - - - 23.9 1012.2 0.0
 
Date/Time
EST
Wind Sea
Height
m
Swell Vis
km
Cloud Weather Temp
°C
Press
MSL
hPa
Rain since
9am
mm
Dir  Spd
kts
Gust
kts
Height
m
Period
s
Dir
22/11:30pm ESE 7 9 - - - - - - - 24.1 1012.5 0.0
22/11:00pm ESE 7 11 - - - - - - - 24.3 1012.7 0.0
22/10:30pm ESE 6 8 - - - - - - - 24.1 1012.6 0.0
22/10:00pm ESE 7 10 - - - - - - - 24.3 1012.4 0.0
22/09:30pm ESE 8 13 - - - - - - - 24.5 1012.2 0.0
22/09:00pm ESE 8 11 - - - - - - - 24.7 1012.2 0.0
22/08:30pm ESE 7 10 - - - - - - - 24.7 1012.1 0.0
22/08:00pm SE 9 13 - - - - - - - 25.1 1012.0 0.0
22/07:30pm ESE 9 14 - - - - - - - 25.2 1011.7 0.0
22/07:00pm SE 9 14 - - - - - - - 25.4 1011.4 0.0
22/06:30pm SE 9 13 - - - - - - - 25.6 1011.0 0.0
22/06:00pm ESE 10 15 - - - - - - - 25.9 1010.7 0.0
22/05:30pm ESE 11 16 - - - - - - - 26.7 1010.5 0.0
22/05:00pm SE 12 16 - - - - - - - 27.1 1010.2 0.0
22/04:30pm ESE 13 18 - - - - - - - 27.5 1010.4 0.0
22/04:00pm ESE 13 18 - - - - - - - 28.1 1010.6 0.0
22/03:30pm SE 12 16 - - - - - - - 28.9 1010.6 0.0
22/03:00pm ESE 12 17 - - - - - - - 28.5 1010.7 0.0
22/02:30pm ESE 11 15 - - - - - - - 29.1 1010.9 0.0
22/02:00pm SE 11 15 - - - - - - - 29.3 1011.0 0.0
22/01:30pm SE 11 17 - - - - - - - 29.6 1011.1 0.0
22/01:00pm ESE 11 16 - - - - - - - 30.2 1011.4 0.0
22/12:30pm ESE 12 17 - - - - - - - 29.8 1011.8 0.0
22/12:00pm ESE 11 15 - - - - - - - 29.9 1012.3 0.0
22/11:30am SE 11 17 - - - - - - - 29.6 1012.6 0.0
22/11:00am ESE 11 17 - - - - - - - 30.2 1012.9 0.0
22/10:30am SE 12 17 - - - - - - - 29.8 1013.1 0.0
22/10:00am SE 11 15 - - - - - - - 29.2 1013.4 0.0
22/09:30am SE 10 16 - - - - - - - 28.7 1013.5 0.0
22/09:00am ESE 11 15 - - - - - - - 28.1 1013.6 0.0
22/08:30am SE 10 14 - - - - - - - 28.0 1013.3 0.0
22/08:00am SE 11 15 - - - - - - - 27.4 1013.0 0.0
22/07:30am ESE 9 12 - - - - - - - 26.9 1012.5 0.0
22/07:00am ESE 6 9 - - - - - - - 25.3 1012.1 0.0
22/06:30am ESE 5 7 - - - - - - - 23.9 1011.8 0.0
22/06:00am ESE 6 8 - - - - - - - 23.9 1011.4 0.0
22/05:30am ESE 6 7 - - - - - - - 24.1 1011.2 0.0
22/05:00am E 4 6 - - - - - - - 23.4 1011.0 0.0
22/04:30am SE 7 11 - - - - - - - 24.6 1010.8 0.0
22/04:00am SE 6 8 - - - - - - - 24.5 1010.5 0.0
22/03:30am ESE 6 9 - - - - - - - 24.0 1010.2 0.0

Other formats

Comma delimited format used in spreadsheet applications
http://www.bom.gov.au/fwo/IDQ60701/IDQ60701.94188.axf

JavaScript Object Notation format (JSON) in row-major order
http://www.bom.gov.au/fwo/IDQ60701/IDQ60701.94188.json

Data quality

Most of these data are generated automatically and are frequently updated. Quality checks on data are not normally performed. It is possible for incorrect values to appear. Refer to information at About Latest Weather Observations and please check the disclaimer before using these data.